sensor_id;sensor_type;location;lat;lon;timestamp;P1;durP1;ratioP1;P2;durP2;ratioP2
10132;SDS011;5106;50.926;7.080;2024-02-04T00:02:02;4.65;;;2.88;;
10132;SDS011;5106;50.926;7.080;2024-02-04T00:04:28;2.05;;;1.92;;
10132;SDS011;5106;50.926;7.080;2024-02-04T00:06:54;2.30;;;2.10;;
10132;SDS011;5106;50.926;7.080;2024-02-04T00:09:20;2.30;;;2.10;;
10132;SDS011;5106;50.926;7.080;2024-02-04T00:11:46;2.63;;;2.40;;
10132;SDS011;5106;50.926;7.080;2024-02-04T00:14:11;2.70;;;2.50;;
10132;SDS011;5106;50.926;7.080;2024-02-04T00:16:37;2.77;;;2.57;;
10132;SDS011;5106;50.926;7.080;2024-02-04T00:19:03;3.10;;;2.80;;
10132;SDS011;5106;50.926;7.080;2024-02-04T00:21:28;3.15;;;2.83;;
10132;SDS011;5106;50.926;7.080;2024-02-04T00:23:54;2.90;;;2.70;;
10132;SDS011;5106;50.926;7.080;2024-02-04T00:26:19;3.97;;;3.22;;
10132;SDS011;5106;50.926;7.080;2024-02-04T00:28:45;3.45;;;3.15;;
10132;SDS011;5106;50.926;7.080;2024-02-04T00:31:11;3.75;;;3.45;;
10132;SDS011;5106;50.926;7.080;2024-02-04T00:33:36;4.03;;;3.60;;
10132;SDS011;5106;50.926;7.080;2024-02-04T00:36:02;5.30;;;3.92;;
10132;SDS011;5106;50.926;7.080;2024-02-04T00:38:27;4.50;;;4.10;;
10132;SDS011;5106;50.926;7.080;2024-02-04T00:40:53;5.10;;;4.60;;
10132;SDS011;5106;50.926;7.080;2024-02-04T00:43:19;5.30;;;4.80;;
10132;SDS011;5106;50.926;7.080;2024-02-04T00:45:45;5.25;;;4.78;;
10132;SDS011;5106;50.926;7.080;2024-02-04T00:48:10;5.00;;;4.50;;
10132;SDS011;5106;50.926;7.080;2024-02-04T00:50:36;5.30;;;4.80;;
10132;SDS011;5106;50.926;7.080;2024-02-04T00:53:02;5.20;;;4.70;;
10132;SDS011;5106;50.926;7.080;2024-02-04T00:55:27;5.35;;;4.78;;
10132;SDS011;5106;50.926;7.080;2024-02-04T00:57:53;5.70;;;4.28;;
10132;SDS011;5106;50.926;7.080;2024-02-04T01:00:20;6.47;;;5.53;;
10132;SDS011;5106;50.926;7.080;2024-02-04T01:02:46;5.13;;;4.65;;
10132;SDS011;5106;50.926;7.080;2024-02-04T01:05:11;7.25;;;4.93;;
10132;SDS011;5106;50.926;7.080;2024-02-04T01:07:37;4.63;;;4.22;;
10132;SDS011;5106;50.926;7.080;2024-02-04T01:10:03;4.90;;;4.07;;
10132;SDS011;5106;50.926;7.080;2024-02-04T01:12:29;4.40;;;4.00;;
10132;SDS011;5106;50.926;7.080;2024-02-04T01:14:54;4.25;;;3.72;;
10132;SDS011;5106;50.926;7.080;2024-02-04T01:17:20;3.30;;;3.00;;
10132;SDS011;5106;50.926;7.080;2024-02-04T01:19:45;3.83;;;2.93;;
10132;SDS011;5106;50.926;7.080;2024-02-04T01:22:11;3.63;;;3.20;;
10132;SDS011;5106;50.926;7.080;2024-02-04T01:24:36;3.22;;;2.60;;
10132;SDS011;5106;50.926;7.080;2024-02-04T01:27:02;2.80;;;2.50;;
10132;SDS011;5106;50.926;7.080;2024-02-04T01:29:28;3.20;;;2.50;;
10132;SDS011;5106;50.926;7.080;2024-02-04T01:31:53;3.20;;;2.60;;
10132;SDS011;5106;50.926;7.080;2024-02-04T01:34:19;4.40;;;2.60;;
10132;SDS011;5106;50.926;7.080;2024-02-04T01:36:44;3.43;;;2.60;;
10132;SDS011;5106;50.926;7.080;2024-02-04T01:39:10;2.38;;;2.17;;
10132;SDS011;5106;50.926;7.080;2024-02-04T01:41:35;2.42;;;1.92;;
10132;SDS011;5106;50.926;7.080;2024-02-04T01:44:01;3.20;;;1.83;;
10132;SDS011;5106;50.926;7.080;2024-02-04T01:46:28;3.72;;;1.85;;
10132;SDS011;5106;50.926;7.080;2024-02-04T01:48:53;3.63;;;2.30;;
10132;SDS011;5106;50.926;7.080;2024-02-04T01:51:19;2.25;;;2.05;;
10132;SDS011;5106;50.926;7.080;2024-02-04T01:53:46;2.28;;;1.85;;
10132;SDS011;5106;50.926;7.080;2024-02-04T01:56:13;2.63;;;1.83;;
10132;SDS011;5106;50.926;7.080;2024-02-04T01:58:39;1.83;;;1.43;;
10132;SDS011;5106;50.926;7.080;2024-02-04T02:01:05;1.70;;;1.60;;
10132;SDS011;5106;50.926;7.080;2024-02-04T02:03:33;2.65;;;1.80;;
10132;SDS011;5106;50.926;7.080;2024-02-04T02:06:00;2.55;;;1.77;;
10132;SDS011;5106;50.926;7.080;2024-02-04T02:08:26;1.95;;;1.73;;
10132;SDS011;5106;50.926;7.080;2024-02-04T02:10:54;3.42;;;2.03;;
10132;SDS011;5106;50.926;7.080;2024-02-04T02:13:28;2.07;;;1.60;;
10132;SDS011;5106;50.926;7.080;2024-02-04T02:16:02;2.37;;;1.70;;
10132;SDS011;5106;50.926;7.080;2024-02-04T02:24:14;2.50;;;1.73;;
10132;SDS011;5106;50.926;7.080;2024-02-04T02:26:47;2.27;;;1.80;;
10132;SDS011;5106;50.926;7.080;2024-02-04T02:29:14;2.37;;;1.73;;
10132;SDS011;5106;50.926;7.080;2024-02-04T02:31:39;3.13;;;1.93;;
10132;SDS011;5106;50.926;7.080;2024-02-04T02:34:07;4.13;;;1.70;;
10132;SDS011;5106;50.926;7.080;2024-02-04T02:36:56;3.90;;;2.07;;
10132;SDS011;5106;50.926;7.080;2024-02-04T02:39:25;2.97;;;2.10;;
10132;SDS011;5106;50.926;7.080;2024-02-04T02:41:57;3.37;;;2.43;;
10132;SDS011;5106;50.926;7.080;2024-02-04T02:44:28;2.50;;;2.30;;
10132;SDS011;5106;50.926;7.080;2024-02-04T02:46:54;2.77;;;2.47;;
10132;SDS011;5106;50.926;7.080;2024-02-04T02:49:22;2.43;;;2.23;;
10132;SDS011;5106;50.926;7.080;2024-02-04T02:51:47;2.87;;;2.33;;
10132;SDS011;5106;50.926;7.080;2024-02-04T02:54:13;2.63;;;2.35;;
10132;SDS011;5106;50.926;7.080;2024-02-04T02:56:38;3.35;;;2.88;;
10132;SDS011;5106;50.926;7.080;2024-02-04T02:59:04;2.85;;;2.40;;
10132;SDS011;5106;50.926;7.080;2024-02-04T03:01:30;3.37;;;2.93;;
10132;SDS011;5106;50.926;7.080;2024-02-04T03:03:55;3.33;;;3.03;;
10132;SDS011;5106;50.926;7.080;2024-02-04T03:06:21;3.00;;;2.40;;
10132;SDS011;5106;50.926;7.080;2024-02-04T03:08:47;2.63;;;2.42;;
10132;SDS011;5106;50.926;7.080;2024-02-04T03:11:12;2.50;;;2.30;;
10132;SDS011;5106;50.926;7.080;2024-02-04T03:13:39;3.28;;;2.97;;
10132;SDS011;5106;50.926;7.080;2024-02-04T03:16:09;6.55;;;2.72;;
10132;SDS011;5106;50.926;7.080;2024-02-04T03:18:41;3.03;;;2.58;;
10132;SDS011;5106;50.926;7.080;2024-02-04T03:21:14;2.70;;;2.50;;
10132;SDS011;5106;50.926;7.080;2024-02-04T03:23:41;3.93;;;2.30;;
10132;SDS011;5106;50.926;7.080;2024-02-04T03:26:07;3.33;;;2.40;;
10132;SDS011;5106;50.926;7.080;2024-02-04T03:28:33;3.08;;;2.50;;
10132;SDS011;5106;50.926;7.080;2024-02-04T03:30:59;2.90;;;2.17;;
10132;SDS011;5106;50.926;7.080;2024-02-04T03:33:25;3.25;;;2.38;;
10132;SDS011;5106;50.926;7.080;2024-02-04T03:35:50;2.92;;;2.63;;
10132;SDS011;5106;50.926;7.080;2024-02-04T03:38:16;3.65;;;2.65;;
10132;SDS011;5106;50.926;7.080;2024-02-04T03:40:41;3.60;;;2.40;;
10132;SDS011;5106;50.926;7.080;2024-02-04T03:43:08;4.15;;;2.58;;
10132;SDS011;5106;50.926;7.080;2024-02-04T03:45:35;2.78;;;2.50;;
10132;SDS011;5106;50.926;7.080;2024-02-04T03:48:01;3.50;;;2.53;;
10132;SDS011;5106;50.926;7.080;2024-02-04T03:50:27;3.20;;;2.58;;
10132;SDS011;5106;50.926;7.080;2024-02-04T03:52:52;2.67;;;2.47;;
10132;SDS011;5106;50.926;7.080;2024-02-04T03:55:18;3.85;;;2.78;;
10132;SDS011;5106;50.926;7.080;2024-02-04T03:57:44;3.55;;;2.78;;
10132;SDS011;5106;50.926;7.080;2024-02-04T04:00:10;5.57;;;2.63;;
10132;SDS011;5106;50.926;7.080;2024-02-04T04:02:36;3.22;;;2.28;;
10132;SDS011;5106;50.926;7.080;2024-02-04T04:05:02;3.42;;;2.50;;
10132;SDS011;5106;50.926;7.080;2024-02-04T04:07:27;2.97;;;2.67;;
10132;SDS011;5106;50.926;7.080;2024-02-04T04:09:53;3.78;;;2.70;;
10132;SDS011;5106;50.926;7.080;2024-02-04T04:12:18;3.50;;;3.15;;
10132;SDS011;5106;50.926;7.080;2024-02-04T04:14:44;3.13;;;2.83;;
10132;SDS011;5106;50.926;7.080;2024-02-04T04:17:10;3.78;;;3.13;;
10132;SDS011;5106;50.926;7.080;2024-02-04T04:19:35;4.13;;;3.40;;
10132;SDS011;5106;50.926;7.080;2024-02-04T04:22:02;4.18;;;3.63;;
10132;SDS011;5106;50.926;7.080;2024-02-04T04:24:28;3.30;;;2.90;;
10132;SDS011;5106;50.926;7.080;2024-02-04T04:26:54;6.32;;;3.22;;
10132;SDS011;5106;50.926;7.080;2024-02-04T04:29:20;3.47;;;3.17;;
10132;SDS011;5106;50.926;7.080;2024-02-04T04:31:45;4.53;;;3.20;;
10132;SDS011;5106;50.926;7.080;2024-02-04T04:34:11;3.90;;;3.50;;
10132;SDS011;5106;50.926;7.080;2024-02-04T04:36:36;3.92;;;3.38;;
10132;SDS011;5106;50.926;7.080;2024-02-04T04:39:02;3.75;;;3.33;;
10132;SDS011;5106;50.926;7.080;2024-02-04T04:41:28;3.28;;;2.97;;
10132;SDS011;5106;50.926;7.080;2024-02-04T04:43:53;3.30;;;3.00;;
10132;SDS011;5106;50.926;7.080;2024-02-04T04:46:19;3.53;;;3.22;;
10132;SDS011;5106;50.926;7.080;2024-02-04T04:48:45;3.13;;;2.83;;
10132;SDS011;5106;50.926;7.080;2024-02-04T04:51:11;3.65;;;3.03;;
10132;SDS011;5106;50.926;7.080;2024-02-04T04:53:37;3.50;;;2.75;;
10132;SDS011;5106;50.926;7.080;2024-02-04T04:56:02;3.35;;;2.92;;
10132;SDS011;5106;50.926;7.080;2024-02-04T04:58:28;4.43;;;3.08;;
10132;SDS011;5106;50.926;7.080;2024-02-04T05:00:54;3.35;;;3.00;;
10132;SDS011;5106;50.926;7.080;2024-02-04T05:03:19;3.30;;;2.90;;
10132;SDS011;5106;50.926;7.080;2024-02-04T05:05:45;4.20;;;3.28;;
10132;SDS011;5106;50.926;7.080;2024-02-04T05:08:12;3.53;;;3.10;;
10132;SDS011;5106;50.926;7.080;2024-02-04T05:10:39;4.13;;;3.20;;
10132;SDS011;5106;50.926;7.080;2024-02-04T05:13:04;3.22;;;2.65;;
10132;SDS011;5106;50.926;7.080;2024-02-04T05:15:30;3.90;;;2.92;;
10132;SDS011;5106;50.926;7.080;2024-02-04T05:17:56;4.40;;;3.13;;
10132;SDS011;5106;50.926;7.080;2024-02-04T05:20:21;4.47;;;3.00;;
10132;SDS011;5106;50.926;7.080;2024-02-04T05:22:47;3.47;;;3.00;;
10132;SDS011;5106;50.926;7.080;2024-02-04T05:25:12;3.30;;;2.90;;
10132;SDS011;5106;50.926;7.080;2024-02-04T05:27:39;3.38;;;3.00;;
10132;SDS011;5106;50.926;7.080;2024-02-04T05:30:04;3.45;;;2.88;;
10132;SDS011;5106;50.926;7.080;2024-02-04T05:32:30;4.25;;;3.20;;
10132;SDS011;5106;50.926;7.080;2024-02-04T05:34:56;3.10;;;2.80;;
10132;SDS011;5106;50.926;7.080;2024-02-04T05:37:21;5.38;;;3.33;;
10132;SDS011;5106;50.926;7.080;2024-02-04T05:39:47;4.55;;;3.38;;
10132;SDS011;5106;50.926;7.080;2024-02-04T05:42:13;5.55;;;3.30;;
10132;SDS011;5106;50.926;7.080;2024-02-04T05:44:38;4.38;;;3.17;;
10132;SDS011;5106;50.926;7.080;2024-02-04T05:47:04;3.90;;;3.30;;
10132;SDS011;5106;50.926;7.080;2024-02-04T05:49:29;3.97;;;3.58;;
10132;SDS011;5106;50.926;7.080;2024-02-04T05:51:55;4.85;;;3.30;;
10132;SDS011;5106;50.926;7.080;2024-02-04T05:54:21;4.22;;;3.83;;
10132;SDS011;5106;50.926;7.080;2024-02-04T05:56:46;4.63;;;3.65;;
10132;SDS011;5106;50.926;7.080;2024-02-04T05:59:12;4.88;;;3.70;;
10132;SDS011;5106;50.926;7.080;2024-02-04T06:01:37;4.82;;;3.65;;
10132;SDS011;5106;50.926;7.080;2024-02-04T06:04:03;4.45;;;3.65;;
10132;SDS011;5106;50.926;7.080;2024-02-04T06:06:29;4.30;;;3.90;;
10132;SDS011;5106;50.926;7.080;2024-02-04T06:08:54;5.60;;;3.97;;
10132;SDS011;5106;50.926;7.080;2024-02-04T06:11:20;3.88;;;3.40;;
10132;SDS011;5106;50.926;7.080;2024-02-04T06:13:45;4.40;;;3.78;;
10132;SDS011;5106;50.926;7.080;2024-02-04T06:16:11;4.25;;;3.85;;
10132;SDS011;5106;50.926;7.080;2024-02-04T06:18:40;4.88;;;3.72;;
10132;SDS011;5106;50.926;7.080;2024-02-04T06:21:06;4.45;;;4.00;;
10132;SDS011;5106;50.926;7.080;2024-02-04T06:23:31;5.20;;;4.28;;
10132;SDS011;5106;50.926;7.080;2024-02-04T06:25:57;4.75;;;3.97;;
10132;SDS011;5106;50.926;7.080;2024-02-04T06:28:23;3.83;;;3.40;;
10132;SDS011;5106;50.926;7.080;2024-02-04T06:30:48;4.22;;;3.83;;
10132;SDS011;5106;50.926;7.080;2024-02-04T06:33:14;4.68;;;3.78;;
10132;SDS011;5106;50.926;7.080;2024-02-04T06:35:40;4.85;;;3.65;;
10132;SDS011;5106;50.926;7.080;2024-02-04T06:38:06;4.55;;;3.65;;
10132;SDS011;5106;50.926;7.080;2024-02-04T06:40:31;4.10;;;3.30;;
10132;SDS011;5106;50.926;7.080;2024-02-04T06:42:57;3.45;;;3.15;;
10132;SDS011;5106;50.926;7.080;2024-02-04T06:45:22;3.97;;;3.15;;
10132;SDS011;5106;50.926;7.080;2024-02-04T06:47:48;3.60;;;3.20;;
10132;SDS011;5106;50.926;7.080;2024-02-04T06:50:14;2.63;;;2.42;;
10132;SDS011;5106;50.926;7.080;2024-02-04T06:52:41;3.50;;;3.15;;
10132;SDS011;5106;50.926;7.080;2024-02-04T06:55:07;4.10;;;3.00;;
10132;SDS011;5106;50.926;7.080;2024-02-04T06:57:33;4.90;;;3.08;;
10132;SDS011;5106;50.926;7.080;2024-02-04T06:59:59;3.10;;;2.67;;
10132;SDS011;5106;50.926;7.080;2024-02-04T07:02:24;3.47;;;2.88;;
10132;SDS011;5106;50.926;7.080;2024-02-04T07:04:52;3.80;;;3.22;;
10132;SDS011;5106;50.926;7.080;2024-02-04T07:07:18;4.20;;;3.15;;
10132;SDS011;5106;50.926;7.080;2024-02-04T07:09:43;3.10;;;2.80;;
10132;SDS011;5106;50.926;7.080;2024-02-04T07:12:09;3.35;;;3.05;;
10132;SDS011;5106;50.926;7.080;2024-02-04T07:14:34;3.88;;;2.80;;
10132;SDS011;5106;50.926;7.080;2024-02-04T07:17:00;3.70;;;3.10;;
10132;SDS011;5106;50.926;7.080;2024-02-04T07:19:25;6.60;;;3.20;;
10132;SDS011;5106;50.926;7.080;2024-02-04T07:21:51;4.55;;;3.20;;
10132;SDS011;5106;50.926;7.080;2024-02-04T07:24:22;3.90;;;3.40;;
10132;SDS011;5106;50.926;7.080;2024-02-04T07:26:47;5.18;;;3.70;;
10132;SDS011;5106;50.926;7.080;2024-02-04T07:29:13;4.25;;;3.65;;
10132;SDS011;5106;50.926;7.080;2024-02-04T07:31:38;4.30;;;3.42;;
10132;SDS011;5106;50.926;7.080;2024-02-04T07:34:04;3.65;;;3.03;;
10132;SDS011;5106;50.926;7.080;2024-02-04T07:36:30;3.88;;;3.20;;
10132;SDS011;5106;50.926;7.080;2024-02-04T07:38:56;3.75;;;3.17;;
10132;SDS011;5106;50.926;7.080;2024-02-04T07:41:21;4.30;;;2.65;;
10132;SDS011;5106;50.926;7.080;2024-02-04T07:43:47;2.92;;;2.63;;
10132;SDS011;5106;50.926;7.080;2024-02-04T07:46:14;3.03;;;2.72;;
10132;SDS011;5106;50.926;7.080;2024-02-04T07:48:39;2.75;;;2.28;;
10132;SDS011;5106;50.926;7.080;2024-02-04T07:51:06;7.28;;;2.30;;
10132;SDS011;5106;50.926;7.080;2024-02-04T07:53:33;2.58;;;2.38;;
10132;SDS011;5106;50.926;7.080;2024-02-04T07:55:59;3.30;;;2.58;;
10132;SDS011;5106;50.926;7.080;2024-02-04T07:58:24;5.30;;;2.60;;
10132;SDS011;5106;50.926;7.080;2024-02-04T08:00:51;4.18;;;1.95;;
10132;SDS011;5106;50.926;7.080;2024-02-04T08:03:17;2.33;;;1.98;;
10132;SDS011;5106;50.926;7.080;2024-02-04T08:05:43;1.98;;;1.60;;
10132;SDS011;5106;50.926;7.080;2024-02-04T08:08:08;1.50;;;1.40;;
10132;SDS011;5106;50.926;7.080;2024-02-04T08:10:34;1.70;;;1.58;;
10132;SDS011;5106;50.926;7.080;2024-02-04T08:12:59;3.58;;;1.80;;
10132;SDS011;5106;50.926;7.080;2024-02-04T08:15:26;2.42;;;1.70;;
10132;SDS011;5106;50.926;7.080;2024-02-04T08:17:51;1.50;;;1.40;;
10132;SDS011;5106;50.926;7.080;2024-02-04T08:20:17;3.00;;;1.45;;
10132;SDS011;5106;50.926;7.080;2024-02-04T08:22:43;1.58;;;1.48;;
10132;SDS011;5106;50.926;7.080;2024-02-04T08:25:09;1.80;;;1.48;;
10132;SDS011;5106;50.926;7.080;2024-02-04T08:27:37;5.45;;;1.48;;
10132;SDS011;5106;50.926;7.080;2024-02-04T08:30:03;1.52;;;1.40;;
10132;SDS011;5106;50.926;7.080;2024-02-04T08:32:29;1.40;;;1.30;;
10132;SDS011;5106;50.926;7.080;2024-02-04T08:34:55;2.90;;;1.45;;
10132;SDS011;5106;50.926;7.080;2024-02-04T08:37:21;2.15;;;1.70;;
10132;SDS011;5106;50.926;7.080;2024-02-04T08:39:46;1.67;;;1.40;;
10132;SDS011;5106;50.926;7.080;2024-02-04T08:42:12;3.28;;;1.58;;
10132;SDS011;5106;50.926;7.080;2024-02-04T08:44:38;1.75;;;1.30;;
10132;SDS011;5106;50.926;7.080;2024-02-04T08:47:03;1.83;;;1.55;;
10132;SDS011;5106;50.926;7.080;2024-02-04T08:49:29;5.18;;;1.70;;
10132;SDS011;5106;50.926;7.080;2024-02-04T08:51:55;2.45;;;1.60;;
10132;SDS011;5106;50.926;7.080;2024-02-04T08:54:21;2.25;;;1.60;;
10132;SDS011;5106;50.926;7.080;2024-02-04T08:56:46;2.75;;;1.60;;
10132;SDS011;5106;50.926;7.080;2024-02-04T08:59:12;3.75;;;1.98;;
10132;SDS011;5106;50.926;7.080;2024-02-04T09:01:37;2.65;;;1.85;;
10132;SDS011;5106;50.926;7.080;2024-02-04T09:04:03;2.10;;;1.70;;
10132;SDS011;5106;50.926;7.080;2024-02-04T09:06:29;2.55;;;1.85;;
10132;SDS011;5106;50.926;7.080;2024-02-04T09:08:54;3.58;;;2.00;;
10132;SDS011;5106;50.926;7.080;2024-02-04T09:11:20;2.03;;;1.83;;
10132;SDS011;5106;50.926;7.080;2024-02-04T09:13:46;1.60;;;1.50;;
10132;SDS011;5106;50.926;7.080;2024-02-04T09:16:12;2.50;;;1.73;;
10132;SDS011;5106;50.926;7.080;2024-02-04T09:18:38;4.03;;;2.00;;
10132;SDS011;5106;50.926;7.080;2024-02-04T09:21:03;2.50;;;2.05;;
10132;SDS011;5106;50.926;7.080;2024-02-04T09:23:29;2.53;;;1.92;;
10132;SDS011;5106;50.926;7.080;2024-02-04T09:25:54;5.40;;;2.00;;
10132;SDS011;5106;50.926;7.080;2024-02-04T09:28:20;2.10;;;1.70;;
10132;SDS011;5106;50.926;7.080;2024-02-04T09:30:45;3.55;;;1.77;;
10132;SDS011;5106;50.926;7.080;2024-02-04T09:33:11;1.60;;;1.42;;
10132;SDS011;5106;50.926;7.080;2024-02-04T09:35:38;1.65;;;1.35;;
10132;SDS011;5106;50.926;7.080;2024-02-04T09:38:04;1.52;;;1.30;;
10132;SDS011;5106;50.926;7.080;2024-02-04T09:40:29;2.50;;;1.35;;
10132;SDS011;5106;50.926;7.080;2024-02-04T09:42:56;1.50;;;1.40;;
10132;SDS011;5106;50.926;7.080;2024-02-04T09:45:23;2.53;;;1.50;;
10132;SDS011;5106;50.926;7.080;2024-02-04T09:47:49;3.45;;;1.50;;
10132;SDS011;5106;50.926;7.080;2024-02-04T09:50:18;2.25;;;1.30;;
10132;SDS011;5106;50.926;7.080;2024-02-04T09:52:49;1.63;;;1.52;;
10132;SDS011;5106;50.926;7.080;2024-02-04T09:55:16;1.35;;;1.20;;
10132;SDS011;5106;50.926;7.080;2024-02-04T09:57:44;1.60;;;1.50;;
10132;SDS011;5106;50.926;7.080;2024-02-04T10:00:10;1.95;;;1.60;;
10132;SDS011;5106;50.926;7.080;2024-02-04T10:02:38;3.17;;;1.55;;
10132;SDS011;5106;50.926;7.080;2024-02-04T10:05:04;1.55;;;1.40;;
10132;SDS011;5106;50.926;7.080;2024-02-04T10:07:30;1.65;;;1.50;;
10132;SDS011;5106;50.926;7.080;2024-02-04T10:09:55;1.70;;;1.45;;
10132;SDS011;5106;50.926;7.080;2024-02-04T10:12:27;2.45;;;1.52;;
10132;SDS011;5106;50.926;7.080;2024-02-04T10:14:52;2.97;;;1.65;;
10132;SDS011;5106;50.926;7.080;2024-02-04T10:17:18;2.20;;;1.40;;
10132;SDS011;5106;50.926;7.080;2024-02-04T10:19:46;3.75;;;1.55;;
10132;SDS011;5106;50.926;7.080;2024-02-04T10:22:13;2.30;;;1.67;;
10132;SDS011;5106;50.926;7.080;2024-02-04T10:24:39;2.20;;;1.30;;
10132;SDS011;5106;50.926;7.080;2024-02-04T10:27:04;1.77;;;1.50;;
10132;SDS011;5106;50.926;7.080;2024-02-04T10:29:30;2.88;;;1.55;;
10132;SDS011;5106;50.926;7.080;2024-02-04T10:31:56;1.35;;;1.25;;
10132;SDS011;5106;50.926;7.080;2024-02-04T10:34:22;2.28;;;1.60;;
10132;SDS011;5106;50.926;7.080;2024-02-04T10:36:50;2.05;;;1.50;;
10132;SDS011;5106;50.926;7.080;2024-02-04T10:39:16;3.13;;;1.50;;
10132;SDS011;5106;50.926;7.080;2024-02-04T10:41:46;3.38;;;1.58;;
10132;SDS011;5106;50.926;7.080;2024-02-04T10:44:18;2.22;;;1.70;;
10132;SDS011;5106;50.926;7.080;2024-02-04T10:46:47;3.15;;;1.60;;
10132;SDS011;5106;50.926;7.080;2024-02-04T10:49:13;1.55;;;1.30;;
10132;SDS011;5106;50.926;7.080;2024-02-04T10:51:39;2.92;;;1.60;;
10132;SDS011;5106;50.926;7.080;2024-02-04T10:54:06;2.50;;;1.48;;
10132;SDS011;5106;50.926;7.080;2024-02-04T10:59:09;1.85;;;1.50;;
10132;SDS011;5106;50.926;7.080;2024-02-04T11:01:38;1.45;;;1.35;;
10132;SDS011;5106;50.926;7.080;2024-02-04T11:04:07;1.85;;;1.30;;
10132;SDS011;5106;50.926;7.080;2024-02-04T11:06:35;2.30;;;1.45;;
10132;SDS011;5106;50.926;7.080;2024-02-04T11:09:01;1.60;;;1.45;;
10132;SDS011;5106;50.926;7.080;2024-02-04T11:11:30;1.50;;;1.40;;
10132;SDS011;5106;50.926;7.080;2024-02-04T11:13:57;2.30;;;1.60;;
10132;SDS011;5106;50.926;7.080;2024-02-04T11:16:33;1.42;;;1.27;;
10132;SDS011;5106;50.926;7.080;2024-02-04T11:27:49;2.83;;;1.30;;
10132;SDS011;5106;50.926;7.080;2024-02-04T11:30:15;1.65;;;1.20;;
10132;SDS011;5106;50.926;7.080;2024-02-04T11:32:41;2.15;;;1.30;;
10132;SDS011;5106;50.926;7.080;2024-02-04T11:35:07;1.52;;;1.10;;
10132;SDS011;5106;50.926;7.080;2024-02-04T11:37:33;1.23;;;1.13;;
10132;SDS011;5106;50.926;7.080;2024-02-04T11:39:59;1.50;;;1.40;;
10132;SDS011;5106;50.926;7.080;2024-02-04T11:42:25;1.45;;;1.17;;
10132;SDS011;5106;50.926;7.080;2024-02-04T11:45:12;1.00;;;0.90;;
10132;SDS011;5106;50.926;7.080;2024-02-04T11:47:39;2.20;;;0.88;;
10132;SDS011;5106;50.926;7.080;2024-02-04T11:50:05;5.00;;;1.33;;
10132;SDS011;5106;50.926;7.080;2024-02-04T11:52:31;3.10;;;1.40;;
10132;SDS011;5106;50.926;7.080;2024-02-04T11:54:57;1.08;;;0.98;;
10132;SDS011;5106;50.926;7.080;2024-02-04T11:57:23;1.88;;;1.50;;
10132;SDS011;5106;50.926;7.080;2024-02-04T11:59:49;2.83;;;1.42;;
10132;SDS011;5106;50.926;7.080;2024-02-04T12:02:16;1.77;;;1.40;;
10132;SDS011;5106;50.926;7.080;2024-02-04T12:04:45;2.92;;;1.30;;
10132;SDS011;5106;50.926;7.080;2024-02-04T12:07:12;1.80;;;1.20;;
10132;SDS011;5106;50.926;7.080;2024-02-04T12:09:38;1.20;;;1.08;;
10132;SDS011;5106;50.926;7.080;2024-02-04T12:12:04;1.40;;;1.30;;
10132;SDS011;5106;50.926;7.080;2024-02-04T12:14:30;2.20;;;1.20;;
10132;SDS011;5106;50.926;7.080;2024-02-04T12:16:56;1.60;;;1.30;;
10132;SDS011;5106;50.926;7.080;2024-02-04T12:19:22;1.52;;;1.42;;
10132;SDS011;5106;50.926;7.080;2024-02-04T12:21:48;1.30;;;1.20;;
10132;SDS011;5106;50.926;7.080;2024-02-04T12:24:14;1.60;;;1.33;;
10132;SDS011;5106;50.926;7.080;2024-02-04T12:26:40;2.03;;;1.20;;
10132;SDS011;5106;50.926;7.080;2024-02-04T12:29:06;2.70;;;1.20;;
10132;SDS011;5106;50.926;7.080;2024-02-04T12:31:32;1.50;;;1.30;;
10132;SDS011;5106;50.926;7.080;2024-02-04T12:34:01;2.25;;;1.25;;
10132;SDS011;5106;50.926;7.080;2024-02-04T12:36:27;2.95;;;1.23;;
10132;SDS011;5106;50.926;7.080;2024-02-04T12:39:02;3.03;;;1.60;;
10132;SDS011;5106;50.926;7.080;2024-02-04T12:41:34;1.42;;;1.33;;
10132;SDS011;5106;50.926;7.080;2024-02-04T12:44:00;1.75;;;1.50;;
10132;SDS011;5106;50.926;7.080;2024-02-04T12:46:28;2.53;;;1.45;;
10132;SDS011;5106;50.926;7.080;2024-02-04T12:48:54;1.42;;;1.25;;
10132;SDS011;5106;50.926;7.080;2024-02-04T12:53:50;1.30;;;1.20;;
10132;SDS011;5106;50.926;7.080;2024-02-04T12:56:15;1.75;;;1.50;;
10132;SDS011;5106;50.926;7.080;2024-02-04T12:58:41;1.30;;;1.20;;
10132;SDS011;5106;50.926;7.080;2024-02-04T13:01:07;1.20;;;1.00;;
10132;SDS011;5106;50.926;7.080;2024-02-04T13:03:33;1.20;;;1.10;;
10132;SDS011;5106;50.926;7.080;2024-02-04T13:05:59;1.83;;;1.13;;
10132;SDS011;5106;50.926;7.080;2024-02-04T13:08:25;1.13;;;0.90;;
10132;SDS011;5106;50.926;7.080;2024-02-04T13:10:55;1.25;;;1.10;;
10132;SDS011;5106;50.926;7.080;2024-02-04T13:13:21;2.05;;;1.30;;
10132;SDS011;5106;50.926;7.080;2024-02-04T13:15:47;1.27;;;1.17;;
10132;SDS011;5106;50.926;7.080;2024-02-04T13:18:12;2.05;;;1.17;;
10132;SDS011;5106;50.926;7.080;2024-02-04T13:20:41;1.45;;;1.20;;
10132;SDS011;5106;50.926;7.080;2024-02-04T13:23:10;1.30;;;1.20;;
10132;SDS011;5106;50.926;7.080;2024-02-04T13:25:36;1.33;;;1.23;;
10132;SDS011;5106;50.926;7.080;2024-02-04T13:28:02;1.77;;;1.30;;
10132;SDS011;5106;50.926;7.080;2024-02-04T13:30:28;1.42;;;1.33;;
10132;SDS011;5106;50.926;7.080;2024-02-04T13:32:54;1.55;;;1.45;;
10132;SDS011;5106;50.926;7.080;2024-02-04T13:35:22;2.33;;;1.67;;
10132;SDS011;5106;50.926;7.080;2024-02-04T13:37:48;2.67;;;1.60;;
10132;SDS011;5106;50.926;7.080;2024-02-04T13:40:17;1.60;;;1.50;;
10132;SDS011;5106;50.926;7.080;2024-02-04T13:42:44;2.55;;;1.70;;
10132;SDS011;5106;50.926;7.080;2024-02-04T13:45:10;1.80;;;1.70;;
10132;SDS011;5106;50.926;7.080;2024-02-04T13:47:39;2.00;;;1.80;;
10132;SDS011;5106;50.926;7.080;2024-02-04T13:50:06;2.65;;;1.92;;
10132;SDS011;5106;50.926;7.080;2024-02-04T13:52:33;2.22;;;1.90;;
10132;SDS011;5106;50.926;7.080;2024-02-04T13:55:02;4.53;;;2.10;;
10132;SDS011;5106;50.926;7.080;2024-02-04T13:57:32;2.50;;;1.80;;
10132;SDS011;5106;50.926;7.080;2024-02-04T13:59:58;2.72;;;1.88;;
10132;SDS011;5106;50.926;7.080;2024-02-04T14:02:24;2.08;;;1.85;;
10132;SDS011;5106;50.926;7.080;2024-02-04T14:04:51;2.05;;;1.60;;
10132;SDS011;5106;50.926;7.080;2024-02-04T14:07:17;1.80;;;1.70;;
10132;SDS011;5106;50.926;7.080;2024-02-04T14:09:43;1.40;;;1.30;;
10132;SDS011;5106;50.926;7.080;2024-02-04T14:12:09;1.35;;;1.25;;
10132;SDS011;5106;50.926;7.080;2024-02-04T14:14:36;1.77;;;1.25;;
10132;SDS011;5106;50.926;7.080;2024-02-04T14:17:02;3.80;;;1.38;;
10132;SDS011;5106;50.926;7.080;2024-02-04T14:19:27;1.67;;;1.10;;
10132;SDS011;5106;50.926;7.080;2024-02-04T14:21:53;2.00;;;1.27;;
10132;SDS011;5106;50.926;7.080;2024-02-04T14:24:18;1.08;;;0.90;;
10132;SDS011;5106;50.926;7.080;2024-02-04T14:26:44;1.10;;;0.85;;
10132;SDS011;5106;50.926;7.080;2024-02-04T14:29:09;1.10;;;1.00;;
10132;SDS011;5106;50.926;7.080;2024-02-04T14:31:35;1.13;;;0.90;;
10132;SDS011;5106;50.926;7.080;2024-02-04T14:34:01;1.15;;;1.00;;
10132;SDS011;5106;50.926;7.080;2024-02-04T14:36:26;1.15;;;1.05;;
10132;SDS011;5106;50.926;7.080;2024-02-04T14:38:53;1.33;;;0.90;;
10132;SDS011;5106;50.926;7.080;2024-02-04T14:41:18;1.10;;;1.00;;
10132;SDS011;5106;50.926;7.080;2024-02-04T14:43:44;1.27;;;0.93;;
10132;SDS011;5106;50.926;7.080;2024-02-04T14:46:10;1.20;;;1.10;;
10132;SDS011;5106;50.926;7.080;2024-02-04T14:48:36;1.23;;;1.10;;
10132;SDS011;5106;50.926;7.080;2024-02-04T14:51:02;1.70;;;1.30;;
10132;SDS011;5106;50.926;7.080;2024-02-04T14:53:28;1.35;;;0.95;;
10132;SDS011;5106;50.926;7.080;2024-02-04T14:55:53;4.22;;;0.90;;
10132;SDS011;5106;50.926;7.080;2024-02-04T14:58:21;1.73;;;1.23;;
10132;SDS011;5106;50.926;7.080;2024-02-04T15:00:47;1.88;;;1.00;;
10132;SDS011;5106;50.926;7.080;2024-02-04T15:03:13;1.17;;;0.90;;
10132;SDS011;5106;50.926;7.080;2024-02-04T15:05:39;1.15;;;0.95;;
10132;SDS011;5106;50.926;7.080;2024-02-04T15:08:05;1.05;;;0.85;;
10132;SDS011;5106;50.926;7.080;2024-02-04T15:10:31;0.90;;;0.70;;
10132;SDS011;5106;50.926;7.080;2024-02-04T15:12:58;1.38;;;1.00;;
10132;SDS011;5106;50.926;7.080;2024-02-04T15:15:23;1.38;;;0.60;;